createdAt,value
2019-01-15T00:00:22.816Z,83.65
2019-01-15T00:01:22.986Z,83.54
2019-01-15T00:02:22.800Z,83.44
2019-01-15T00:03:22.736Z,83.86
2019-01-15T00:04:22.798Z,83.86
2019-01-15T00:05:22.716Z,83.75
2019-01-15T00:06:22.711Z,83.86
2019-01-15T00:07:22.767Z,83.75
2019-01-15T00:08:22.766Z,83.75
2019-01-15T00:09:22.671Z,83.75
2019-01-15T00:10:22.707Z,83.96
2019-01-15T00:11:22.695Z,83.86
2019-01-15T00:12:22.659Z,83.86
2019-01-15T00:13:22.678Z,83.65
2019-01-15T00:14:22.659Z,84.06
2019-01-15T00:15:22.681Z,83.75
2019-01-15T00:16:22.613Z,83.65
2019-01-15T00:17:22.585Z,83.54
2019-01-15T00:18:22.572Z,83.54
2019-01-15T00:19:22.589Z,83.75
2019-01-15T00:20:22.545Z,83.86
2019-01-15T00:21:22.610Z,84.06
2019-01-15T00:22:22.545Z,84.06
2019-01-15T00:23:25.433Z,83.86
2019-01-15T00:24:22.529Z,83.75
2019-01-15T00:25:22.518Z,83.75
2019-01-15T00:26:22.578Z,83.86
2019-01-15T00:27:22.499Z,83.54
2019-01-15T00:28:22.498Z,83.75
2019-01-15T00:29:22.549Z,83.80
2019-01-15T00:30:22.520Z,83.54
2019-01-15T00:31:22.510Z,83.54
2019-01-15T00:32:22.548Z,83.75
2019-01-15T00:33:22.417Z,83.65
2019-01-15T00:34:22.432Z,83.75
2019-01-15T00:35:22.453Z,83.90
2019-01-15T00:36:22.376Z,83.69
2019-01-15T00:37:22.417Z,83.80
2019-01-15T00:38:22.382Z,83.80
2019-01-15T00:39:22.356Z,83.96
2019-01-15T00:40:22.354Z,83.86
2019-01-15T00:41:22.344Z,83.75
2019-01-15T00:42:22.428Z,84.38
2019-01-15T00:43:22.353Z,83.86
2019-01-15T00:44:22.321Z,83.96
2019-01-15T00:45:22.271Z,83.54
2019-01-15T00:46:22.306Z,84.00
2019-01-15T00:47:22.279Z,83.86
2019-01-15T00:48:22.255Z,83.75
2019-01-15T00:49:22.231Z,83.80
2019-01-15T00:50:22.227Z,83.75
2019-01-15T00:51:22.210Z,83.65
2019-01-15T00:52:22.282Z,83.96
2019-01-15T00:53:22.190Z,83.86
2019-01-15T00:54:22.199Z,83.86
2019-01-15T00:55:22.170Z,83.86
2019-01-15T00:56:22.160Z,83.75
2019-01-15T00:57:22.146Z,83.90
2019-01-15T00:58:22.390Z,83.90
2019-01-15T00:59:22.122Z,83.65
2019-01-15T01:00:22.111Z,83.86
2019-01-15T01:01:22.106Z,83.96
2019-01-15T01:02:22.091Z,83.86
2019-01-15T01:03:22.078Z,84.00
2019-01-15T01:04:22.382Z,84.38
2019-01-15T01:05:22.065Z,84.31
2019-01-15T01:06:22.047Z,84.38
2019-01-15T01:07:22.034Z,84.27
2019-01-15T01:08:22.025Z,84.38
2019-01-15T01:09:22.038Z,84.38
2019-01-15T01:10:22.040Z,83.96
2019-01-15T01:11:21.997Z,83.65
2019-01-15T01:12:22.375Z,83.48
2019-01-15T01:13:21.967Z,83.96
2019-01-15T01:14:21.959Z,83.86
2019-01-15T01:15:21.967Z,83.86
2019-01-15T01:16:21.968Z,83.86
2019-01-15T01:17:21.956Z,83.96
2019-01-15T01:18:22.192Z,83.86
2019-01-15T01:19:21.921Z,83.86
2019-01-15T01:20:21.895Z,83.75
2019-01-15T01:21:21.881Z,83.75
2019-01-15T01:22:21.890Z,83.86
2019-01-15T01:23:21.859Z,83.86
2019-01-15T01:24:21.914Z,83.86
2019-01-15T01:25:21.838Z,83.54
2019-01-15T01:26:21.886Z,83.51
2019-01-15T01:27:21.832Z,83.75
2019-01-15T01:28:21.805Z,84.06
2019-01-15T01:29:21.824Z,83.65
2019-01-15T01:30:21.809Z,83.96
2019-01-15T01:31:21.785Z,83.44
2019-01-15T01:32:21.762Z,84.06
2019-01-15T01:33:21.790Z,83.65
2019-01-15T01:34:21.740Z,83.54
2019-01-15T01:35:21.754Z,83.51
2019-01-15T01:36:21.723Z,83.40
2019-01-15T01:37:21.707Z,83.34
2019-01-15T01:38:21.697Z,83.34
2019-01-15T01:39:21.724Z,83.20
2019-01-15T01:40:21.743Z,83.20
2019-01-15T01:41:21.673Z,83.09
2019-01-15T01:42:21.650Z,83.20
2019-01-15T01:43:21.647Z,83.30
2019-01-15T01:44:21.661Z,83.30
2019-01-15T01:45:21.656Z,83.30
2019-01-15T01:46:21.667Z,83.30
2019-01-15T01:47:21.623Z,83.09
2019-01-15T01:48:21.631Z,83.13
2019-01-15T01:49:21.577Z,83.72
2019-01-15T01:50:21.618Z,83.51
2019-01-15T01:51:21.596Z,83.13
2019-01-15T01:52:21.572Z,84.27
2019-01-15T01:53:21.561Z,84.17
2019-01-15T01:54:21.572Z,83.86
2019-01-15T01:55:21.514Z,83.72
2019-01-15T01:56:21.531Z,83.82
2019-01-15T01:57:21.514Z,83.61
2019-01-15T01:58:21.482Z,83.92
2019-01-15T01:59:21.474Z,83.65
2019-01-15T02:00:21.488Z,83.92
2019-01-15T02:01:21.508Z,83.75
2019-01-15T02:02:21.460Z,83.86
2019-01-15T02:03:21.442Z,83.51
2019-01-15T02:04:21.411Z,83.86
2019-01-15T02:05:21.417Z,83.72
2019-01-15T02:06:21.439Z,83.86
2019-01-15T02:07:21.386Z,83.75
2019-01-15T02:08:21.380Z,83.96
2019-01-15T02:09:21.399Z,83.54
2019-01-15T02:10:21.396Z,83.54
2019-01-15T02:11:21.370Z,83.61
2019-01-15T02:12:21.369Z,83.51
2019-01-15T02:13:21.319Z,83.82
2019-01-15T02:14:21.308Z,83.65
2019-01-15T02:15:21.326Z,83.82
2019-01-15T02:16:21.312Z,83.86
2019-01-15T02:17:21.282Z,83.72
2019-01-15T02:18:21.290Z,83.72
2019-01-15T02:19:21.253Z,83.61
2019-01-15T02:20:21.273Z,84.17
2019-01-15T02:21:21.270Z,84.13
2019-01-15T02:22:21.225Z,83.92
2019-01-15T02:23:21.239Z,83.54
2019-01-15T02:24:21.233Z,83.23
2019-01-15T02:25:21.242Z,83.30
2019-01-15T02:26:21.400Z,83.54
2019-01-15T02:27:21.245Z,83.30
2019-01-15T02:28:21.211Z,83.54
2019-01-15T02:29:21.197Z,83.75
2019-01-15T02:30:21.190Z,83.65
2019-01-15T02:31:21.157Z,83.61
2019-01-15T02:32:21.167Z,84.06
2019-01-15T02:33:21.138Z,83.96
2019-01-15T02:34:21.102Z,84.17
2019-01-15T02:35:21.111Z,83.65
2019-01-15T02:36:21.070Z,83.86
2019-01-15T02:37:21.112Z,83.54
2019-01-15T02:38:21.085Z,83.65
2019-01-15T02:39:21.078Z,83.54
2019-01-15T02:40:21.084Z,83.86
2019-01-15T02:41:21.077Z,83.75
2019-01-15T02:42:21.081Z,83.86
2019-01-15T02:43:20.994Z,83.75
2019-01-15T02:44:20.985Z,83.96
2019-01-15T02:45:21.012Z,83.86
2019-01-15T02:46:20.970Z,83.54
2019-01-15T02:47:20.980Z,83.54
2019-01-15T02:48:21.002Z,83.72
2019-01-15T02:49:21.006Z,84.06
2019-01-15T02:50:20.979Z,83.65
2019-01-15T02:51:20.948Z,83.96
2019-01-15T02:52:20.922Z,83.65
2019-01-15T02:53:20.914Z,83.86
2019-01-15T02:54:20.906Z,83.86
2019-01-15T02:55:20.901Z,83.75
2019-01-15T02:56:20.869Z,83.75
2019-01-15T02:57:20.867Z,83.86
2019-01-15T02:58:20.865Z,83.96
2019-01-15T02:59:20.828Z,83.96
2019-01-15T03:00:20.813Z,83.54
2019-01-15T03:01:20.801Z,83.86
2019-01-15T03:02:20.831Z,83.96
2019-01-15T03:03:20.823Z,83.96
2019-01-15T03:04:20.801Z,84.38
2019-01-15T03:05:20.788Z,83.96
2019-01-15T03:06:20.751Z,83.86
2019-01-15T03:07:20.762Z,83.96
2019-01-15T03:08:20.810Z,83.96
2019-01-15T03:09:20.720Z,83.96
2019-01-15T03:10:20.735Z,83.44
2019-01-15T03:11:20.725Z,83.61
2019-01-15T03:12:20.717Z,83.40
2019-01-15T03:13:20.727Z,83.82
2019-01-15T03:14:20.677Z,83.96
2019-01-15T03:15:20.679Z,83.86
2019-01-15T03:16:20.647Z,83.86
2019-01-15T03:17:20.630Z,84.03
2019-01-15T03:18:20.693Z,83.51
2019-01-15T03:19:20.645Z,83.92
2019-01-15T03:20:20.628Z,83.86
2019-01-15T03:21:20.589Z,83.72
2019-01-15T03:22:20.586Z,83.82
2019-01-15T03:23:20.658Z,83.82
2019-01-15T03:24:20.582Z,84.27
2019-01-15T03:25:20.587Z,83.92
2019-01-15T03:26:20.561Z,83.65
2019-01-15T03:27:20.562Z,83.96
2019-01-15T03:28:20.571Z,83.96
2019-01-15T03:29:20.584Z,83.92
2019-01-15T03:30:20.578Z,83.72
2019-01-15T03:31:20.523Z,84.03
2019-01-15T03:32:20.491Z,83.96
2019-01-15T03:33:20.463Z,83.92
2019-01-15T03:34:20.506Z,84.03
2019-01-15T03:35:20.438Z,83.86
2019-01-15T03:36:20.421Z,84.03
2019-01-15T03:37:20.428Z,83.30
2019-01-15T03:38:20.403Z,83.65
2019-01-15T03:39:20.389Z,84.06
2019-01-15T03:40:20.411Z,83.96
2019-01-15T03:41:20.371Z,83.92
2019-01-15T03:42:20.386Z,83.86
2019-01-15T03:43:20.351Z,83.82
2019-01-15T03:44:20.374Z,83.82
2019-01-15T03:45:20.342Z,83.75
2019-01-15T03:46:20.325Z,83.82
2019-01-15T03:47:20.304Z,83.72
2019-01-15T03:48:20.325Z,83.82
2019-01-15T03:49:20.289Z,83.92
2019-01-15T03:50:20.293Z,83.96
2019-01-15T03:51:20.263Z,83.96
2019-01-15T03:52:20.250Z,83.72
2019-01-15T03:53:20.238Z,83.72
2019-01-15T03:54:20.271Z,83.96
2019-01-15T03:55:20.221Z,83.72
2019-01-15T03:56:20.231Z,83.82
2019-01-15T03:57:20.217Z,83.92
2019-01-15T03:58:20.280Z,83.96
2019-01-15T03:59:20.208Z,83.72
2019-01-15T04:00:20.188Z,83.82
2019-01-15T04:01:20.155Z,84.03
2019-01-15T04:02:20.160Z,83.82
2019-01-15T04:03:20.154Z,83.86
2019-01-15T04:04:20.124Z,83.86
2019-01-15T04:05:20.137Z,83.92
2019-01-15T04:06:20.101Z,83.61
2019-01-15T04:07:20.089Z,83.51
2019-01-15T04:08:20.111Z,83.86
2019-01-15T04:09:20.069Z,83.82
2019-01-15T04:10:20.086Z,83.92
2019-01-15T04:11:20.072Z,83.96
2019-01-15T04:12:20.039Z,83.82
2019-01-15T04:13:21.757Z,83.75
2019-01-15T04:14:20.051Z,83.72
2019-01-15T04:15:20.041Z,83.72
2019-01-15T04:16:20.019Z,83.72
2019-01-15T04:17:19.987Z,83.61
2019-01-15T04:18:20.018Z,84.13
2019-01-15T04:19:19.992Z,83.61
2019-01-15T04:20:20.015Z,83.82
2019-01-15T04:21:19.940Z,84.17
2019-01-15T04:22:19.980Z,83.92
2019-01-15T04:23:19.920Z,83.86
2019-01-15T04:24:19.933Z,83.82
2019-01-15T04:25:19.898Z,84.34
2019-01-15T04:26:19.932Z,84.34
2019-01-15T04:27:19.873Z,83.82
2019-01-15T04:28:19.894Z,83.92
2019-01-15T04:29:19.881Z,83.96
2019-01-15T04:30:19.848Z,83.40
2019-01-15T04:31:20.119Z,83.92
2019-01-15T04:32:19.861Z,83.82
2019-01-15T04:33:19.823Z,84.03
2019-01-15T04:34:19.817Z,84.17
2019-01-15T04:35:19.799Z,84.03
2019-01-15T04:36:19.813Z,83.65
2019-01-15T04:37:19.839Z,84.65
2019-01-15T04:38:19.779Z,84.75
2019-01-15T04:39:19.771Z,84.13
2019-01-15T04:40:19.790Z,83.72
2019-01-15T04:41:19.756Z,84.13
2019-01-15T04:42:19.792Z,83.72
2019-01-15T04:43:20.158Z,84.23
2019-01-15T04:44:19.748Z,84.13
2019-01-15T04:45:19.687Z,83.72
2019-01-15T04:46:19.693Z,84.44
2019-01-15T04:47:19.683Z,84.55
2019-01-15T04:48:19.651Z,84.65
2019-01-15T04:49:19.694Z,83.96
2019-01-15T04:50:19.660Z,84.13
2019-01-15T04:51:19.642Z,84.13
2019-01-15T04:52:19.656Z,84.34
2019-01-15T04:53:19.615Z,84.44
2019-01-15T04:54:19.609Z,84.44
2019-01-15T04:55:19.576Z,84.75
2019-01-15T04:56:19.560Z,84.65
2019-01-15T04:57:19.592Z,84.75
2019-01-15T04:58:19.592Z,84.44
2019-01-15T04:59:19.552Z,84.75
2019-01-15T05:00:19.552Z,84.55
2019-01-15T05:01:19.508Z,84.96
2019-01-15T05:02:19.537Z,84.96
2019-01-15T05:03:19.493Z,84.75
2019-01-15T05:04:19.490Z,84.75
2019-01-15T05:05:19.484Z,84.96
2019-01-15T05:06:19.456Z,84.96
2019-01-15T05:07:19.482Z,85.28
2019-01-15T05:08:19.483Z,84.86
2019-01-15T05:09:19.455Z,85.49
2019-01-15T05:10:19.435Z,86.11
2019-01-15T05:11:19.434Z,85.80
2019-01-15T05:12:19.430Z,85.59
2019-01-15T05:13:27.203Z,85.49
2019-01-15T05:14:20.368Z,86.11
2019-01-15T05:15:19.355Z,85.80
2019-01-15T05:16:19.380Z,86.17
2019-01-15T05:17:19.339Z,86.17
2019-01-15T05:18:19.356Z,85.86
2019-01-15T05:19:19.319Z,86.59
2019-01-15T05:20:19.312Z,86.42
2019-01-15T05:21:19.299Z,86.07
2019-01-15T05:22:19.288Z,86.27
2019-01-15T05:23:19.296Z,86.69
2019-01-15T05:24:19.264Z,86.49
2019-01-15T05:25:19.259Z,86.52
2019-01-15T05:26:19.243Z,86.17
2019-01-15T05:27:19.256Z,86.69
2019-01-15T05:28:19.218Z,86.49
2019-01-15T05:29:19.236Z,87.42
2019-01-15T05:30:19.198Z,87.11
2019-01-15T05:31:19.184Z,87.42
2019-01-15T05:32:19.179Z,87.73
2019-01-15T05:33:19.206Z,87.11
2019-01-15T05:34:19.157Z,87.63
2019-01-15T05:35:19.173Z,87.94
2019-01-15T05:36:19.132Z,88.25
2019-01-15T05:37:19.158Z,88.25
2019-01-15T05:38:19.113Z,88.15
2019-01-15T05:39:19.148Z,87.94
2019-01-15T05:40:19.114Z,87.63
2019-01-15T05:41:19.109Z,88.04
2019-01-15T05:42:19.101Z,87.73
2019-01-15T05:43:19.063Z,87.52
2019-01-15T05:44:19.050Z,88.04
2019-01-15T05:45:19.103Z,87.90
2019-01-15T05:46:19.079Z,87.84
2019-01-15T05:47:19.016Z,87.84
2019-01-15T05:48:19.059Z,87.52
2019-01-15T05:49:19.016Z,87.84
2019-01-15T05:50:18.987Z,87.94
2019-01-15T05:51:19.019Z,88.04
2019-01-15T05:52:19.013Z,88.52
2019-01-15T05:53:18.979Z,88.73
2019-01-15T05:54:19.019Z,88.31
2019-01-15T05:55:18.959Z,87.94
2019-01-15T05:56:18.921Z,88.46
2019-01-15T05:57:18.921Z,88.35
2019-01-15T05:58:18.895Z,88.21
2019-01-15T05:59:18.936Z,88.31
2019-01-15T06:00:18.871Z,88.56
2019-01-15T06:01:18.890Z,88.31
2019-01-15T06:02:18.876Z,88.31
2019-01-15T06:03:18.901Z,88.25
2019-01-15T06:04:18.859Z,89.15
2019-01-15T06:05:18.818Z,89.04
2019-01-15T06:06:18.866Z,89.25
2019-01-15T06:07:18.832Z,89.25
2019-01-15T06:08:18.794Z,89.25
2019-01-15T06:09:18.835Z,89.25
2019-01-15T06:10:18.820Z,89.36
2019-01-15T06:11:18.764Z,89.15
2019-01-15T06:12:18.766Z,89.15
2019-01-15T06:13:18.768Z,88.73
2019-01-15T06:14:18.763Z,88.84
2019-01-15T06:15:18.776Z,88.73
2019-01-15T06:16:18.739Z,89.08
2019-01-15T06:17:18.740Z,88.62
2019-01-15T06:18:18.706Z,88.84
2019-01-15T06:19:18.690Z,88.84
2019-01-15T06:20:18.737Z,89.25
2019-01-15T06:21:18.681Z,89.25
2019-01-15T06:22:18.695Z,89.04
2019-01-15T06:23:18.656Z,89.36
2019-01-15T06:24:18.636Z,89.56
2019-01-15T06:25:18.705Z,89.46
2019-01-15T06:26:18.640Z,89.25
2019-01-15T06:27:18.604Z,89.25
2019-01-15T06:28:18.586Z,89.25
2019-01-15T06:29:18.589Z,90.08
2019-01-15T06:30:18.574Z,90.39
2019-01-15T06:31:18.579Z,90.19
2019-01-15T06:32:18.539Z,90.19
2019-01-15T06:33:18.516Z,89.87
2019-01-15T06:34:18.509Z,89.87
2019-01-15T06:35:18.500Z,89.77
2019-01-15T06:36:18.515Z,89.77
2019-01-15T06:37:18.480Z,89.87
2019-01-15T06:38:18.486Z,89.67
2019-01-15T06:39:18.449Z,90.29
2019-01-15T06:40:18.446Z,89.46
2019-01-15T06:41:18.455Z,90.39
2019-01-15T06:42:18.443Z,90.29
2019-01-15T06:43:18.412Z,90.39
2019-01-15T06:44:18.479Z,90.50
2019-01-15T06:45:18.394Z,90.25
2019-01-15T06:46:18.381Z,89.42
2019-01-15T06:47:18.366Z,90.39
2019-01-15T06:48:18.353Z,90.14
2019-01-15T06:49:18.349Z,90.29
2019-01-15T06:50:18.379Z,90.29
2019-01-15T06:51:18.321Z,90.25
2019-01-15T06:52:18.314Z,90.19
2019-01-15T06:53:18.600Z,90.19
2019-01-15T06:54:18.291Z,90.08
2019-01-15T06:55:18.276Z,90.08
2019-01-15T06:56:18.280Z,90.19
2019-01-15T06:57:18.257Z,90.04
2019-01-15T06:58:18.260Z,90.14
2019-01-15T06:59:18.293Z,90.19
2019-01-15T07:00:18.227Z,90.25
2019-01-15T07:01:18.218Z,89.94
2019-01-15T07:02:18.206Z,90.14
2019-01-15T07:03:18.237Z,90.04
2019-01-15T07:04:18.189Z,90.14
2019-01-15T07:05:18.175Z,90.04
2019-01-15T07:06:18.159Z,89.94
2019-01-15T07:07:18.154Z,89.94
2019-01-15T07:08:18.162Z,90.45
2019-01-15T07:09:18.139Z,90.87
2019-01-15T07:10:18.120Z,90.77
2019-01-15T07:11:18.137Z,90.45
2019-01-15T07:12:18.096Z,90.77
2019-01-15T07:13:18.087Z,90.66
2019-01-15T07:14:18.097Z,90.77
2019-01-15T07:15:18.085Z,90.77
2019-01-15T07:16:18.054Z,90.87
2019-01-15T07:17:18.041Z,90.66
2019-01-15T07:18:18.065Z,90.66
2019-01-15T07:19:18.020Z,90.77
2019-01-15T07:20:18.005Z,91.03
2019-01-15T07:21:18.022Z,90.93
2019-01-15T07:22:17.992Z,91.03
2019-01-15T07:23:18.000Z,90.83
2019-01-15T07:24:17.966Z,91.03
2019-01-15T07:25:17.951Z,91.03
2019-01-15T07:26:17.940Z,90.62
2019-01-15T07:27:17.946Z,91.03
2019-01-15T07:28:17.959Z,90.83
2019-01-15T07:29:17.910Z,90.93
2019-01-15T07:30:17.903Z,91.03
2019-01-15T07:31:17.892Z,90.83
2019-01-15T07:32:17.876Z,90.93
2019-01-15T07:33:17.891Z,90.93
2019-01-15T07:34:17.883Z,91.03
2019-01-15T07:35:17.846Z,91.20
2019-01-15T07:36:17.836Z,91.03
2019-01-15T07:37:17.822Z,91.03
2019-01-15T07:38:17.835Z,90.93
2019-01-15T07:39:17.838Z,90.83
2019-01-15T07:40:17.791Z,91.03
2019-01-15T07:41:17.807Z,91.00
2019-01-15T07:42:17.779Z,91.14
2019-01-15T07:43:17.817Z,90.89
2019-01-15T07:44:17.752Z,90.79
2019-01-15T07:45:17.758Z,90.79
2019-01-15T07:46:17.729Z,90.69
2019-01-15T07:47:17.724Z,90.79
2019-01-15T07:48:17.715Z,90.69
2019-01-15T07:49:17.720Z,90.89
2019-01-15T07:50:17.696Z,90.79
2019-01-15T07:51:17.674Z,90.79
2019-01-15T07:52:17.666Z,90.89
2019-01-15T07:53:17.656Z,90.79
2019-01-15T07:54:17.674Z,90.69
2019-01-15T07:55:17.659Z,90.58
2019-01-15T07:56:17.643Z,90.27
2019-01-15T07:57:17.628Z,90.54
2019-01-15T07:58:17.593Z,90.89
2019-01-15T07:59:17.614Z,91.00
2019-01-15T08:00:17.596Z,90.58
2019-01-15T08:01:17.585Z,90.58
2019-01-15T08:02:17.590Z,90.37
2019-01-15T08:03:17.584Z,90.69
2019-01-15T08:04:17.532Z,90.37
2019-01-15T08:05:17.560Z,90.69
2019-01-15T08:06:17.545Z,90.79
2019-01-15T08:07:17.498Z,90.75
2019-01-15T08:08:17.489Z,91.00
2019-01-15T08:09:17.506Z,90.79
2019-01-15T08:10:17.533Z,90.27
2019-01-15T08:11:17.461Z,90.33
2019-01-15T08:12:17.481Z,90.33
2019-01-15T08:13:17.466Z,90.12
2019-01-15T08:14:17.425Z,90.02
2019-01-15T08:15:17.460Z,89.92
2019-01-15T08:16:17.406Z,90.23
2019-01-15T08:17:17.416Z,89.92
2019-01-15T08:18:17.437Z,90.02
2019-01-15T08:19:17.385Z,89.92
2019-01-15T08:20:17.394Z,90.12
2019-01-15T08:21:17.393Z,90.12
2019-01-15T08:22:17.346Z,90.12
2019-01-15T08:23:17.377Z,90.29
2019-01-15T08:24:17.339Z,90.12
2019-01-15T08:25:17.331Z,90.23
2019-01-15T08:26:17.330Z,90.19
2019-01-15T08:27:17.298Z,89.87
2019-01-15T08:28:17.297Z,90.44
2019-01-15T08:29:17.261Z,90.08
2019-01-15T08:30:17.274Z,90.29
2019-01-15T08:31:17.757Z,90.12
2019-01-15T08:32:17.250Z,90.23
2019-01-15T08:33:17.252Z,90.19
2019-01-15T08:34:17.233Z,89.87
2019-01-15T08:35:17.218Z,89.87
2019-01-15T08:36:17.215Z,90.08
2019-01-15T08:37:17.182Z,90.08
2019-01-15T08:38:17.186Z,89.98
2019-01-15T08:39:17.167Z,90.19
2019-01-15T08:40:17.150Z,89.98
2019-01-15T08:41:17.136Z,89.87
2019-01-15T08:42:17.168Z,89.98
2019-01-15T08:43:17.132Z,90.08
2019-01-15T08:44:19.322Z,89.77
2019-01-15T08:45:17.123Z,89.87
2019-01-15T08:46:17.103Z,89.98
2019-01-15T08:47:17.094Z,90.04
2019-01-15T08:48:17.111Z,89.87
2019-01-15T08:49:17.047Z,90.04
2019-01-15T08:50:17.032Z,89.83
2019-01-15T08:51:17.033Z,89.83
2019-01-15T08:52:17.045Z,89.94
2019-01-15T08:53:17.028Z,89.73
2019-01-15T08:54:17.019Z,90.04
2019-01-15T08:55:17.021Z,90.14
2019-01-15T08:56:16.966Z,89.94
2019-01-15T08:57:16.995Z,89.73
2019-01-15T08:58:16.988Z,90.14
2019-01-15T08:59:16.961Z,89.73
2019-01-15T09:00:16.929Z,89.94
2019-01-15T09:01:16.941Z,89.73
2019-01-15T09:02:17.168Z,89.83
2019-01-15T09:03:16.936Z,90.04
2019-01-15T09:04:16.902Z,90.14
2019-01-15T09:05:16.870Z,89.83
2019-01-15T09:06:16.857Z,89.62
2019-01-15T09:07:16.847Z,90.04
2019-01-15T09:08:16.860Z,90.14
2019-01-15T09:09:16.943Z,90.35
2019-01-15T09:10:16.823Z,90.04
2019-01-15T09:11:16.801Z,90.66
2019-01-15T09:12:16.815Z,90.77
2019-01-15T09:13:16.858Z,90.72
2019-01-15T09:14:16.794Z,90.72
2019-01-15T09:15:16.800Z,90.14
2019-01-15T09:16:16.750Z,90.00
2019-01-15T09:17:16.764Z,89.89
2019-01-15T09:18:16.793Z,89.89
2019-01-15T09:19:16.739Z,89.89
2019-01-15T09:20:16.728Z,89.79
2019-01-15T09:21:16.724Z,89.89
2019-01-15T09:22:16.714Z,90.10
2019-01-15T09:23:16.716Z,90.16
2019-01-15T09:24:17.262Z,90.37
2019-01-15T09:25:16.660Z,90.00
2019-01-15T09:26:16.879Z,89.89
2019-01-15T09:27:16.660Z,90.16
2019-01-15T09:28:16.623Z,89.44
2019-01-15T09:29:16.658Z,89.79
2019-01-15T09:30:16.597Z,89.44
2019-01-15T09:31:16.585Z,89.44
2019-01-15T09:32:16.595Z,89.44
2019-01-15T09:33:16.562Z,89.44
2019-01-15T09:34:16.553Z,89.86
2019-01-15T09:35:16.579Z,89.03
2019-01-15T09:36:16.556Z,88.92
2019-01-15T09:37:16.541Z,88.92
2019-01-15T09:38:16.528Z,89.23
2019-01-15T09:39:16.501Z,88.26
2019-01-15T09:40:16.490Z,89.03
2019-01-15T09:41:16.561Z,88.36
2019-01-15T09:42:16.489Z,88.30
2019-01-15T09:43:16.483Z,88.82
2019-01-15T09:44:16.486Z,88.40
2019-01-15T09:45:16.475Z,88.40
2019-01-15T09:46:16.474Z,88.78
2019-01-15T09:47:17.171Z,88.40
2019-01-15T09:48:16.431Z,88.67
2019-01-15T09:49:16.420Z,88.78
2019-01-15T09:50:16.405Z,88.30
2019-01-15T09:51:16.422Z,88.71
2019-01-15T09:52:20.437Z,88.30
2019-01-15T09:53:16.346Z,88.16
2019-01-15T09:54:16.362Z,87.95
2019-01-15T09:55:16.373Z,88.06
2019-01-15T09:56:16.338Z,88.26
2019-01-15T09:57:16.356Z,88.88
2019-01-15T09:58:16.291Z,88.67
2019-01-15T09:59:16.285Z,88.82
2019-01-15T10:00:16.271Z,88.20
2019-01-15T10:01:16.309Z,87.95
2019-01-15T10:02:16.251Z,87.64
2019-01-15T10:03:16.239Z,88.46
2019-01-15T10:04:16.228Z,87.74
2019-01-15T10:05:16.221Z,87.95
2019-01-15T10:06:16.229Z,88.06
2019-01-15T10:07:16.210Z,87.74
2019-01-15T10:08:16.208Z,87.64
2019-01-15T10:09:16.174Z,87.74
2019-01-15T10:10:16.167Z,88.06
2019-01-15T10:11:16.182Z,87.74
2019-01-15T10:12:16.140Z,87.64
2019-01-15T10:13:16.166Z,87.43
2019-01-15T10:14:16.147Z,87.95
2019-01-15T10:15:16.117Z,88.26
2019-01-15T10:16:16.105Z,87.64
2019-01-15T10:17:16.140Z,88.26
2019-01-15T10:18:16.104Z,87.74
2019-01-15T10:19:16.098Z,87.64
2019-01-15T10:20:16.075Z,87.64
2019-01-15T10:21:16.098Z,87.54
2019-01-15T10:22:16.038Z,86.91
2019-01-15T10:23:16.053Z,87.33
2019-01-15T10:24:16.014Z,86.91
2019-01-15T10:25:16.025Z,87.33
2019-01-15T10:26:15.997Z,87.85
2019-01-15T10:27:16.039Z,87.43
2019-01-15T10:28:15.975Z,87.64
2019-01-15T10:29:15.963Z,87.81
2019-01-15T10:30:16.004Z,87.23
2019-01-15T10:31:15.953Z,87.08
2019-01-15T10:32:15.968Z,86.88
2019-01-15T10:33:15.918Z,87.08
2019-01-15T10:34:15.935Z,86.88
2019-01-15T10:35:15.900Z,85.84
2019-01-15T10:36:15.917Z,85.84
2019-01-15T10:37:15.898Z,86.05
2019-01-15T10:38:15.887Z,86.05
2019-01-15T10:39:15.906Z,85.94
2019-01-15T10:40:15.874Z,86.15
2019-01-15T10:41:15.869Z,86.05
2019-01-15T10:42:15.850Z,85.63
2019-01-15T10:43:15.881Z,86.05
2019-01-15T10:44:15.800Z,85.94
2019-01-15T10:45:15.792Z,86.05
2019-01-15T10:46:15.791Z,86.15
2019-01-15T10:47:15.771Z,86.05
2019-01-15T10:48:15.766Z,85.42
2019-01-15T10:49:15.806Z,85.60
2019-01-15T10:50:15.748Z,85.49
2019-01-15T10:51:15.733Z,85.11
2019-01-15T10:52:15.755Z,85.39
2019-01-15T10:53:15.711Z,84.66
2019-01-15T10:54:15.743Z,84.45
2019-01-15T10:55:15.698Z,84.36
2019-01-15T10:56:15.734Z,84.15
2019-01-15T10:57:15.673Z,84.36
2019-01-15T10:58:17.751Z,84.25
2019-01-15T10:59:15.641Z,84.15
2019-01-15T11:00:15.665Z,83.94
2019-01-15T11:01:15.627Z,83.84
2019-01-15T11:02:15.614Z,83.94
2019-01-15T11:03:15.628Z,84.05
2019-01-15T11:04:15.596Z,83.73
2019-01-15T11:05:15.576Z,83.94
2019-01-15T11:06:15.589Z,83.63
2019-01-15T11:07:15.611Z,83.28
2019-01-15T11:08:15.572Z,83.73
2019-01-15T11:09:15.561Z,83.42
2019-01-15T11:10:15.552Z,83.42
2019-01-15T11:11:15.574Z,83.42
2019-01-15T11:12:15.503Z,83.22
2019-01-15T11:13:15.538Z,83.11
2019-01-15T11:14:15.539Z,83.18
2019-01-15T11:15:15.470Z,83.22
2019-01-15T11:16:15.463Z,83.18
2019-01-15T11:17:15.455Z,83.39
2019-01-15T11:18:15.452Z,83.80
2019-01-15T11:19:15.432Z,83.80
2019-01-15T11:20:15.439Z,83.70
2019-01-15T11:21:15.421Z,83.28
2019-01-15T11:22:15.396Z,83.70
2019-01-15T11:23:15.386Z,83.28
2019-01-15T11:24:15.433Z,83.39
2019-01-15T11:25:15.388Z,83.39
2019-01-15T11:26:15.427Z,83.18
2019-01-15T11:27:15.343Z,83.49
2019-01-15T11:28:15.365Z,83.18
2019-01-15T11:29:15.385Z,82.93
2019-01-15T11:30:15.387Z,82.93
2019-01-15T11:31:15.298Z,83.45
2019-01-15T11:32:15.320Z,83.55
2019-01-15T11:33:15.285Z,83.34
2019-01-15T11:34:15.321Z,83.45
2019-01-15T11:35:15.282Z,83.34
2019-01-15T11:36:15.254Z,83.55
2019-01-15T11:37:15.243Z,82.52
2019-01-15T11:38:15.227Z,82.73
2019-01-15T11:39:15.209Z,82.42
2019-01-15T11:40:15.230Z,83.45
2019-01-15T11:41:15.242Z,83.04
2019-01-15T11:42:15.243Z,83.55
2019-01-15T11:43:15.178Z,83.55
2019-01-15T11:44:15.161Z,83.34
2019-01-15T11:45:15.199Z,83.34
2019-01-15T11:46:15.161Z,83.25
2019-01-15T11:47:15.147Z,83.14
2019-01-15T11:48:15.152Z,82.93
2019-01-15T11:49:15.138Z,83.14
2019-01-15T11:50:15.159Z,83.14
2019-01-15T11:51:15.102Z,83.25
2019-01-15T11:52:15.073Z,83.04
2019-01-15T11:53:15.060Z,83.25
2019-01-15T11:54:15.109Z,83.25
2019-01-15T11:55:15.064Z,83.25
2019-01-15T11:56:15.109Z,83.45
2019-01-15T11:57:15.053Z,83.45
2019-01-15T11:58:15.029Z,83.34
2019-01-15T11:59:14.987Z,83.34
2019-01-15T12:00:14.996Z,83.34
2019-01-15T12:01:14.994Z,83.34
2019-01-15T12:02:22.023Z,83.34
2019-01-15T12:03:15.942Z,83.25
2019-01-15T12:04:14.932Z,83.34
2019-01-15T12:05:14.930Z,83.86
2019-01-15T12:06:14.990Z,83.45
2019-01-15T12:07:14.903Z,83.45
2019-01-15T12:08:14.917Z,83.45
2019-01-15T12:09:14.901Z,84.07
2019-01-15T12:10:14.895Z,83.14
2019-01-15T12:11:14.884Z,83.86
2019-01-15T12:12:14.885Z,83.45
2019-01-15T12:13:14.834Z,83.86
2019-01-15T12:14:14.856Z,83.97
2019-01-15T12:15:14.810Z,84.21
2019-01-15T12:16:14.876Z,84.89
2019-01-15T12:17:14.827Z,85.41
2019-01-15T12:18:14.799Z,85.62
2019-01-15T12:19:14.768Z,85.41
2019-01-15T12:20:14.764Z,85.83
2019-01-15T12:21:14.803Z,85.93
2019-01-15T12:22:14.782Z,86.13
2019-01-15T12:23:14.765Z,85.93
2019-01-15T12:24:14.737Z,86.34
2019-01-15T12:25:14.747Z,86.03
2019-01-15T12:26:14.690Z,85.83
2019-01-15T12:27:14.690Z,86.44
2019-01-15T12:28:14.721Z,86.65
2019-01-15T12:29:14.687Z,86.34
2019-01-15T12:30:14.656Z,86.82
2019-01-15T12:31:14.637Z,86.86
2019-01-15T12:32:14.644Z,86.24
2019-01-15T12:33:14.665Z,85.83
2019-01-15T12:34:14.615Z,86.13
2019-01-15T12:35:14.631Z,86.55
2019-01-15T12:36:14.578Z,85.83
2019-01-15T12:37:14.596Z,86.13
2019-01-15T12:38:14.567Z,85.93
2019-01-15T12:39:14.560Z,85.93
2019-01-15T12:40:14.569Z,85.83
2019-01-15T12:41:14.550Z,85.89
2019-01-15T12:42:14.516Z,86.03
2019-01-15T12:43:14.503Z,86.13
2019-01-15T12:44:14.520Z,86.03
2019-01-15T12:45:18.415Z,85.17
2019-01-15T12:46:14.510Z,85.31
2019-01-15T12:47:14.470Z,85.62
2019-01-15T12:48:14.461Z,85.31
2019-01-15T12:49:14.434Z,85.52
2019-01-15T12:50:14.453Z,85.52
2019-01-15T12:51:14.417Z,85.78
2019-01-15T12:52:14.411Z,85.83